createdAt,value
2022-11-15T00:01:39.719Z,51.83
2022-11-15T00:04:42.126Z,51.90
2022-11-15T00:07:55.066Z,48.33
2022-11-15T00:11:00.439Z,54.60
2022-11-15T00:14:05.752Z,51.20
2022-11-15T00:17:08.087Z,48.85
2022-11-15T00:20:10.997Z,52.20
2022-11-15T00:23:13.544Z,50.13
2022-11-15T00:26:16.501Z,53.17
2022-11-15T00:32:54.029Z,49.42
2022-11-15T00:36:23.146Z,53.23
2022-11-15T00:39:25.922Z,48.17
2022-11-15T00:42:28.753Z,49.80
2022-11-15T00:45:31.554Z,51.92
2022-11-15T00:48:34.508Z,46.78
2022-11-15T00:51:37.365Z,57.23
2022-11-15T00:54:40.363Z,51.97
2022-11-15T00:57:42.755Z,45.90
2022-11-15T01:00:45.180Z,46.28
2022-11-15T01:03:47.475Z,54.17
2022-11-15T01:06:49.793Z,55.83
2022-11-15T01:09:52.025Z,52.80
2022-11-15T01:12:54.325Z,57.92
2022-11-15T01:15:56.477Z,53.95
2022-11-15T01:18:58.840Z,48.33
2022-11-15T01:22:01.028Z,52.13
2022-11-15T01:25:03.273Z,61.27
2022-11-15T01:28:05.472Z,54.15
2022-11-15T01:31:12.958Z,51.20
2022-11-15T01:34:16.295Z,49.80
2022-11-15T01:37:18.484Z,46.10
2022-11-15T01:40:21.656Z,47.30
2022-11-15T01:43:23.747Z,50.25
2022-11-15T01:46:37.106Z,56.33
2022-11-15T01:49:43.237Z,51.97
2022-11-15T01:52:45.446Z,56.40
2022-11-15T01:55:47.872Z,54.67
2022-11-15T01:58:52.741Z,57.13
2022-11-15T02:01:55.089Z,55.80
2022-11-15T02:04:57.538Z,63.22
2022-11-15T02:08:01.678Z,64.80
2022-11-15T02:11:09.009Z,60.10
2022-11-15T02:14:13.138Z,57.40
2022-11-15T02:17:34.069Z,58.30
2022-11-15T02:20:49.212Z,60.67
2022-11-15T02:24:24.248Z,67.00
2022-11-15T02:27:44.686Z,62.57
2022-11-15T02:31:01.876Z,59.15
2022-11-15T02:34:24.738Z,66.62
2022-11-15T02:37:40.636Z,68.95
2022-11-15T02:41:00.622Z,56.50
2022-11-15T02:44:11.480Z,51.53
2022-11-15T02:47:17.875Z,54.55
2022-11-15T02:50:25.667Z,52.47
2022-11-15T02:53:28.755Z,52.00
2022-11-15T02:56:31.155Z,52.23
2022-11-15T02:59:55.647Z,56.30
2022-11-15T03:03:34.627Z,52.20
2022-11-15T03:06:42.298Z,51.53
2022-11-15T03:09:54.137Z,51.63
2022-11-15T03:13:01.132Z,52.00
2022-11-15T03:16:12.469Z,48.33
2022-11-15T03:19:35.930Z,49.50
2022-11-15T03:22:43.886Z,55.17
2022-11-15T03:25:49.769Z,51.90
2022-11-15T03:28:58.917Z,48.67
2022-11-15T03:32:10.839Z,44.33
2022-11-15T03:35:19.823Z,45.03
2022-11-15T03:38:26.298Z,48.33
2022-11-15T03:41:47.814Z,50.38
2022-11-15T03:45:11.410Z,49.47
2022-11-15T03:48:22.851Z,44.80
2022-11-15T03:51:25.155Z,38.97
2022-11-15T03:54:27.437Z,39.83
2022-11-15T03:57:29.752Z,39.30
2022-11-15T04:00:35.583Z,40.83
2022-11-15T04:03:37.764Z,40.87
2022-11-15T04:06:39.975Z,42.90
2022-11-15T04:10:00.859Z,44.15
2022-11-15T04:13:03.960Z,41.03
2022-11-15T04:16:06.355Z,35.57
2022-11-15T04:19:27.330Z,38.77
2022-11-15T04:22:48.036Z,40.75
2022-11-15T04:25:54.156Z,43.60
2022-11-15T04:29:15.149Z,35.50
2022-11-15T04:32:17.340Z,42.53
2022-11-15T04:35:19.496Z,43.40
2022-11-15T04:38:21.691Z,39.25
2022-11-15T04:41:23.999Z,43.38
2022-11-15T04:44:26.309Z,49.38
2022-11-15T04:47:29.266Z,38.57
2022-11-15T04:50:34.443Z,39.33
2022-11-15T04:53:36.643Z,33.05
2022-11-15T04:56:38.944Z,40.05
2022-11-15T04:59:41.502Z,38.45
2022-11-15T05:03:02.235Z,38.23
2022-11-15T05:06:04.600Z,42.90
2022-11-15T05:09:07.221Z,39.33
2022-11-15T05:12:09.579Z,39.72
2022-11-15T05:15:11.944Z,43.10
2022-11-15T05:18:15.573Z,44.40
2022-11-15T05:21:20.689Z,43.10
2022-11-15T05:24:22.870Z,43.22
2022-11-15T05:27:25.043Z,41.92
2022-11-15T05:30:29.585Z,40.10
2022-11-15T05:33:32.955Z,40.23
2022-11-15T05:36:39.354Z,46.50
2022-11-15T05:39:41.732Z,40.70
2022-11-15T05:42:44.125Z,41.53
2022-11-15T05:45:46.462Z,39.33
2022-11-15T05:48:51.527Z,40.80
2022-11-15T05:51:55.205Z,46.80
2022-11-15T05:54:59.218Z,34.58
2022-11-15T05:58:02.477Z,39.00
2022-11-15T06:01:05.810Z,41.35
2022-11-15T06:04:07.975Z,39.93
2022-11-15T06:07:10.273Z,40.43
2022-11-15T06:10:12.747Z,38.95
2022-11-15T06:13:15.609Z,42.10
2022-11-15T06:16:17.894Z,41.37
2022-11-15T06:19:20.114Z,35.67
2022-11-15T06:22:22.290Z,40.80
2022-11-15T06:25:24.597Z,40.63
2022-11-15T06:28:30.790Z,42.80
2022-11-15T06:31:33.043Z,43.03
2022-11-15T06:34:37.059Z,35.37
2022-11-15T06:37:39.297Z,40.50
2022-11-15T06:40:42.390Z,42.58
2022-11-15T06:43:45.019Z,37.15
2022-11-15T06:46:47.257Z,39.50
2022-11-15T06:49:49.632Z,42.13
2022-11-15T06:52:51.988Z,43.97
2022-11-15T06:55:55.659Z,38.95
2022-11-15T06:58:58.146Z,37.70
2022-11-15T07:02:01.035Z,44.67
2022-11-15T07:05:03.277Z,40.13
2022-11-15T07:08:08.703Z,51.73
2022-11-15T07:11:11.142Z,44.00
2022-11-15T07:14:13.854Z,44.30
2022-11-15T07:17:16.065Z,45.47
2022-11-15T07:20:21.904Z,42.43
2022-11-15T07:23:24.054Z,41.40
2022-11-15T07:26:26.205Z,46.60
2022-11-15T07:29:28.884Z,40.47
2022-11-15T07:32:31.227Z,38.08
2022-11-15T07:35:33.421Z,38.80
2022-11-15T07:38:42.505Z,45.03
2022-11-15T07:41:45.112Z,46.95
2022-11-15T07:44:47.818Z,43.47
2022-11-15T07:47:51.319Z,44.07
2022-11-15T07:50:53.903Z,39.87
2022-11-15T07:53:56.503Z,39.97
2022-11-15T07:57:03.862Z,37.95
2022-11-15T08:00:09.618Z,40.78
2022-11-15T08:03:16.971Z,41.27
2022-11-15T08:06:19.261Z,41.07
2022-11-15T08:09:21.545Z,45.53
2022-11-15T08:12:23.951Z,53.17
2022-11-15T08:15:26.502Z,41.22
2022-11-15T08:18:28.925Z,41.20
2022-11-15T08:21:31.229Z,44.17
2022-11-15T08:24:33.450Z,43.85
2022-11-15T08:27:35.660Z,49.83
2022-11-15T08:30:43.892Z,38.40
2022-11-15T08:33:46.421Z,48.33
2022-11-15T08:36:48.698Z,52.63
2022-11-15T08:39:50.865Z,45.65
2022-11-15T08:42:53.130Z,51.42
2022-11-15T08:45:57.903Z,34.40
2022-11-15T08:49:00.157Z,39.63
2022-11-15T08:52:02.491Z,55.73
2022-11-15T08:55:05.264Z,58.47
2022-11-15T08:58:08.120Z,63.75
2022-11-15T09:01:20.019Z,54.83
2022-11-15T09:04:22.609Z,61.97
2022-11-15T09:07:25.935Z,54.27
2022-11-15T09:10:29.599Z,57.40
2022-11-15T09:13:31.928Z,55.53
2022-11-15T09:16:34.287Z,54.97
2022-11-15T09:19:36.646Z,58.40
2022-11-15T09:22:40.326Z,55.00
2022-11-15T09:25:42.511Z,47.45
2022-11-15T09:28:44.966Z,54.30
2022-11-15T09:31:47.179Z,49.25
2022-11-15T09:34:49.375Z,49.73
2022-11-15T09:37:56.116Z,45.90
2022-11-15T09:41:13.708Z,30.65
2022-11-15T09:44:47.692Z,45.80
2022-11-15T09:48:20.348Z,51.60
2022-11-15T09:51:36.414Z,49.03
2022-11-15T09:54:55.983Z,46.77
2022-11-15T09:58:23.913Z,43.97
2022-11-15T10:01:42.952Z,46.58
2022-11-15T10:04:45.413Z,46.15
2022-11-15T10:08:04.707Z,43.50
2022-11-15T10:11:38.311Z,39.07
2022-11-15T10:14:42.689Z,49.33
2022-11-15T10:18:05.040Z,54.13
2022-11-15T10:21:40.177Z,48.22
2022-11-15T10:24:44.674Z,42.60
2022-11-15T10:31:52.289Z,49.45
2022-11-15T10:34:54.560Z,41.58
2022-11-15T10:38:11.029Z,44.30
2022-11-15T10:41:14.116Z,40.87
2022-11-15T10:44:21.786Z,32.37
2022-11-15T10:47:39.013Z,37.67
2022-11-15T10:50:47.835Z,39.58
2022-11-15T10:53:52.355Z,40.30
2022-11-15T10:56:57.498Z,31.47
2022-11-15T11:00:22.205Z,28.87
2022-11-15T11:03:40.677Z,25.48
2022-11-15T11:06:56.885Z,26.60
2022-11-15T11:10:49.093Z,31.62
2022-11-15T11:13:41.825Z,26.33
2022-11-15T11:16:53.321Z,34.10
2022-11-15T11:20:04.788Z,34.20
2022-11-15T11:23:32.040Z,34.72
2022-11-15T11:26:50.576Z,24.40
2022-11-15T11:30:47.543Z,28.37
2022-11-15T11:34:20.560Z,26.20
2022-11-15T11:37:50.335Z,27.05
2022-11-15T11:41:17.668Z,17.85
2022-11-15T11:44:25.723Z,25.75
2022-11-15T11:47:36.217Z,33.77
2022-11-15T11:50:40.190Z,25.00
2022-11-15T11:53:54.366Z,32.67
2022-11-15T11:57:00.746Z,28.62
2022-11-15T12:00:15.683Z,27.00
2022-11-15T12:03:40.682Z,28.80
2022-11-15T12:06:50.773Z,30.97
2022-11-15T12:10:15.639Z,29.52
2022-11-15T12:13:23.101Z,31.92
2022-11-15T12:16:29.571Z,36.83
2022-11-15T12:19:32.273Z,31.47
2022-11-15T12:22:42.244Z,28.73
2022-11-15T12:26:13.889Z,32.28
2022-11-15T12:29:40.931Z,32.15
2022-11-15T12:32:59.297Z,34.55
2022-11-15T12:36:04.859Z,19.97
2022-11-15T12:39:15.128Z,32.33
2022-11-15T12:42:23.209Z,34.58
2022-11-15T12:45:27.614Z,30.80
2022-11-15T12:48:38.967Z,32.65
2022-11-15T12:51:44.209Z,33.73
2022-11-15T12:54:55.243Z,33.33
2022-11-15T12:58:40.321Z,34.65
2022-11-15T13:01:42.473Z,27.00
2022-11-15T13:04:44.791Z,31.80
2022-11-15T13:07:46.939Z,26.83
2022-11-15T13:10:49.991Z,24.93
2022-11-15T13:13:52.245Z,32.90
2022-11-15T13:17:00.426Z,32.03
2022-11-15T13:20:02.618Z,23.90
2022-11-15T13:23:16.893Z,27.87
2022-11-15T13:26:19.215Z,32.03
2022-11-15T13:29:21.768Z,28.40
2022-11-15T13:32:24.342Z,31.55
2022-11-15T13:35:29.834Z,33.38
2022-11-15T13:38:34.920Z,34.37
2022-11-15T13:41:48.435Z,36.67
2022-11-15T13:45:03.058Z,34.13
2022-11-15T13:48:07.332Z,36.70
2022-11-15T13:51:21.558Z,36.03
2022-11-15T13:54:33.435Z,34.97
2022-11-15T13:57:44.855Z,33.60
2022-11-15T14:00:48.416Z,31.90
2022-11-15T14:03:58.673Z,31.62
2022-11-15T14:07:03.301Z,34.13
2022-11-15T14:10:27.036Z,31.17
2022-11-15T14:13:32.511Z,32.20
2022-11-15T14:16:40.560Z,33.38
2022-11-15T14:19:42.807Z,37.90
2022-11-15T14:22:53.931Z,36.67
2022-11-15T14:26:00.390Z,37.67
2022-11-15T14:29:28.866Z,37.07
2022-11-15T14:32:45.177Z,36.92
2022-11-15T14:35:47.559Z,39.85
2022-11-15T14:38:49.728Z,35.70
2022-11-15T14:41:52.132Z,39.27
2022-11-15T14:44:54.685Z,34.63
2022-11-15T14:47:56.852Z,41.08
2022-11-15T14:50:59.123Z,42.62
2022-11-15T14:54:01.401Z,45.12
2022-11-15T14:57:03.665Z,41.37
2022-11-15T15:00:06.607Z,38.40
2022-11-15T15:03:09.610Z,32.70
2022-11-15T15:06:18.055Z,36.08
2022-11-15T15:09:20.849Z,42.30
2022-11-15T15:12:24.722Z,37.43
2022-11-15T15:15:32.631Z,40.07
2022-11-15T15:18:35.317Z,42.35
2022-11-15T15:21:38.834Z,40.10
2022-11-15T15:24:41.125Z,41.35
2022-11-15T15:27:43.398Z,41.53
2022-11-15T15:30:50.613Z,36.53
2022-11-15T15:33:52.890Z,40.90
2022-11-15T15:37:26.749Z,41.08
2022-11-15T15:40:32.205Z,34.33
2022-11-15T15:43:34.442Z,45.73
2022-11-15T15:46:36.655Z,39.03
2022-11-15T15:49:39.215Z,42.85
2022-11-15T15:52:41.538Z,41.95
2022-11-15T15:55:43.971Z,43.85
2022-11-15T15:58:46.116Z,44.13
2022-11-15T16:01:48.548Z,37.40
2022-11-15T16:04:50.999Z,32.45
2022-11-15T16:07:53.274Z,31.70
2022-11-15T16:10:55.882Z,40.28
2022-11-15T16:13:58.325Z,38.87
2022-11-15T16:17:00.596Z,41.23
2022-11-15T16:20:02.933Z,39.60
2022-11-15T16:23:12.422Z,39.90
2022-11-15T16:26:36.128Z,45.50
2022-11-15T16:29:38.400Z,43.77
2022-11-15T16:32:40.657Z,30.83
2022-11-15T16:35:43.012Z,38.72
2022-11-15T16:38:45.510Z,38.20
2022-11-15T16:41:48.046Z,48.53
2022-11-15T16:44:50.377Z,47.37
2022-11-15T16:47:54.016Z,28.97
2022-11-15T16:50:59.610Z,41.80
2022-11-15T16:54:01.965Z,44.33
2022-11-15T16:57:04.253Z,43.05
2022-11-15T17:00:07.512Z,36.07
2022-11-15T17:03:10.348Z,43.50
2022-11-15T17:06:14.629Z,39.17
2022-11-15T17:09:25.423Z,45.67
2022-11-15T17:12:27.633Z,39.30
2022-11-15T17:15:30.245Z,39.50
2022-11-15T17:18:32.823Z,41.60
2022-11-15T17:21:35.272Z,37.20
2022-11-15T17:24:38.390Z,34.08
2022-11-15T17:27:41.169Z,38.20
2022-11-15T17:30:46.445Z,36.00
2022-11-15T17:33:49.134Z,44.73
2022-11-15T17:36:51.488Z,36.95
2022-11-15T17:39:54.187Z,39.97
2022-11-15T17:42:58.993Z,36.55
2022-11-15T17:46:05.713Z,41.97
2022-11-15T17:49:08.527Z,43.53
2022-11-15T17:52:10.914Z,40.20
2022-11-15T17:55:13.638Z,41.03
2022-11-15T17:58:22.116Z,28.60
2022-11-15T18:01:26.302Z,32.87
2022-11-15T18:04:29.385Z,39.20
2022-11-15T18:07:31.662Z,39.60
2022-11-15T18:10:33.993Z,44.17
2022-11-15T18:13:38.120Z,40.65
2022-11-15T18:16:41.113Z,36.40
2022-11-15T18:19:43.459Z,50.50
2022-11-15T18:22:45.759Z,42.00
2022-11-15T18:25:52.152Z,42.17
2022-11-15T18:29:04.350Z,34.97
2022-11-15T18:32:14.945Z,46.17
2022-11-15T18:35:19.924Z,44.10
2022-11-15T18:38:22.383Z,43.28
2022-11-15T18:41:28.582Z,41.15
2022-11-15T18:44:31.815Z,40.38
2022-11-15T18:47:34.558Z,46.47
2022-11-15T18:50:37.277Z,38.70
2022-11-15T18:53:41.185Z,40.85
2022-11-15T18:56:47.869Z,40.28
2022-11-15T18:59:50.355Z,43.97
2022-11-15T19:02:56.030Z,51.87
2022-11-15T19:06:13.046Z,42.00
2022-11-15T19:09:17.483Z,51.45
2022-11-15T19:12:19.697Z,45.75
2022-11-15T19:15:22.483Z,45.88
2022-11-15T19:18:30.537Z,37.60
2022-11-15T19:21:33.549Z,36.80
2022-11-15T19:24:36.271Z,47.88
2022-11-15T19:27:38.837Z,40.25
2022-11-15T19:30:43.417Z,39.90
2022-11-15T19:33:46.306Z,33.60
2022-11-15T19:36:49.545Z,45.17
2022-11-15T19:39:52.522Z,36.42
2022-11-15T19:42:55.407Z,40.50
2022-11-15T19:46:02.493Z,43.87
2022-11-15T19:49:07.679Z,48.07
2022-11-15T19:52:10.855Z,41.20
2022-11-15T19:55:13.655Z,34.22
2022-11-15T19:58:16.247Z,41.25
2022-11-15T20:01:39.668Z,40.83
2022-11-15T20:04:42.506Z,40.13
2022-11-15T20:07:45.175Z,40.57
2022-11-15T20:10:49.702Z,38.45
2022-11-15T20:13:52.467Z,37.60
2022-11-15T20:16:54.798Z,42.83
2022-11-15T20:19:58.649Z,35.27
2022-11-15T20:23:03.446Z,33.73
2022-11-15T20:26:06.044Z,37.40
2022-11-15T20:29:10.248Z,36.33
2022-11-15T20:32:12.726Z,26.55
2022-11-15T20:35:15.065Z,34.47
2022-11-15T20:38:18.239Z,38.47
2022-11-15T20:41:20.529Z,37.70
2022-11-15T20:44:22.749Z,35.70
2022-11-15T20:47:30.110Z,36.03
2022-11-15T20:50:42.616Z,34.40
2022-11-15T20:53:46.798Z,37.10
2022-11-15T20:56:50.455Z,36.33
2022-11-15T20:59:53.106Z,41.42
2022-11-15T21:02:55.449Z,41.40
2022-11-15T21:05:57.808Z,38.07
2022-11-15T21:09:18.441Z,40.23
2022-11-15T21:12:21.639Z,40.08
2022-11-15T21:15:24.113Z,37.35
2022-11-15T21:18:26.465Z,41.80
2022-11-15T21:21:28.762Z,39.93
2022-11-15T21:24:31.469Z,43.53
2022-11-15T21:27:33.767Z,38.35
2022-11-15T21:30:36.769Z,41.83
2022-11-15T21:33:39.246Z,38.58
2022-11-15T21:36:41.839Z,36.30
2022-11-15T21:39:44.061Z,39.20
2022-11-15T21:42:46.307Z,40.90
2022-11-15T21:46:00.551Z,39.70
2022-11-15T21:49:04.009Z,43.65
2022-11-15T21:52:06.277Z,41.23
2022-11-15T21:55:09.551Z,43.33
2022-11-15T21:58:11.796Z,42.25
2022-11-15T22:01:33.114Z,45.03
2022-11-15T22:04:35.437Z,41.78
2022-11-15T22:07:38.403Z,41.97
2022-11-15T22:10:47.399Z,42.53
2022-11-15T22:13:49.776Z,43.05
2022-11-15T22:16:52.090Z,42.78
2022-11-15T22:19:54.284Z,40.28
2022-11-15T22:23:01.865Z,40.87
2022-11-15T22:26:05.203Z,37.67
2022-11-15T22:29:07.815Z,45.55
2022-11-15T22:32:10.071Z,41.22
2022-11-15T22:35:12.454Z,44.20
2022-11-15T22:38:14.892Z,43.83
2022-11-15T22:41:17.186Z,45.07
2022-11-15T22:44:19.309Z,38.38
2022-11-15T22:47:21.870Z,38.58
2022-11-15T22:50:26.115Z,42.35
2022-11-15T22:53:29.303Z,38.03
2022-11-15T22:56:31.530Z,42.97
2022-11-15T22:59:36.029Z,39.30
2022-11-15T23:02:38.570Z,42.47
2022-11-15T23:05:42.080Z,42.33
2022-11-15T23:08:44.357Z,41.60
2022-11-15T23:12:05.323Z,39.10
2022-11-15T23:15:33.235Z,42.00
2022-11-15T23:19:00.109Z,44.50
2022-11-15T23:22:40.978Z,41.40
2022-11-15T23:26:03.272Z,39.00
2022-11-15T23:29:07.985Z,40.30
2022-11-15T23:32:28.973Z,44.72
2022-11-15T23:35:31.191Z,41.88
2022-11-15T23:38:37.630Z,43.20
2022-11-15T23:41:39.904Z,42.60
2022-11-15T23:44:42.139Z,44.67
2022-11-15T23:47:45.001Z,46.00
2022-11-15T23:50:48.551Z,39.92
2022-11-15T23:53:50.857Z,40.50
2022-11-15T23:56:53.059Z,40.80
2022-11-15T23:59:55.371Z,41.50
